createdAt,value
2023-01-25T00:00:23.053Z,103.35
2023-01-25T00:05:25.881Z,344.52
2023-01-25T00:10:27.605Z,120.88
2023-01-25T00:15:29.129Z,114.70
2023-01-25T00:20:32.053Z,202.40
2023-01-25T00:25:33.597Z,172.95
2023-01-25T00:30:35.184Z,135.43
2023-01-25T00:35:38.772Z,101.72
2023-01-25T00:40:40.363Z,123.72
2023-01-25T00:45:41.905Z,76.78
2023-01-25T00:50:44.740Z,169.80
2023-01-25T00:55:51.928Z,179.75
2023-01-25T01:00:53.792Z,236.50
2023-01-25T01:06:05.161Z,115.95
2023-01-25T01:11:09.446Z,291.52
2023-01-25T01:16:12.559Z,137.63
2023-01-25T01:21:15.459Z,169.80
2023-01-25T01:26:18.360Z,158.65
2023-01-25T01:31:21.931Z,160.80
2023-01-25T01:36:27.358Z,88.47
2023-01-25T01:41:28.877Z,80.03
2023-01-25T01:46:34.711Z,116.20
2023-01-25T01:51:45.092Z,109.13
2023-01-25T01:56:51.857Z,113.47
2023-01-25T02:01:54.506Z,148.80
2023-01-25T02:07:03.334Z,122.28
2023-01-25T02:12:07.614Z,113.95
2023-01-25T02:17:11.672Z,245.20
2023-01-25T02:22:19.297Z,314.23
2023-01-25T02:32:23.676Z,308.42
2023-01-25T02:37:25.830Z,184.77
2023-01-25T02:42:31.995Z,173.57
2023-01-25T02:47:33.504Z,283.60
2023-01-25T02:52:35.124Z,596.33
2023-01-25T02:57:38.018Z,713.97
2023-01-25T03:02:39.530Z,963.85
2023-01-25T03:07:41.198Z,593.13
2023-01-25T03:12:44.053Z,429.08
2023-01-25T03:17:45.683Z,572.88
2023-01-25T03:22:47.255Z,593.58
2023-01-25T03:27:50.112Z,718.42
2023-01-25T03:32:51.644Z,573.30
2023-01-25T03:37:53.298Z,473.17
2023-01-25T03:42:56.236Z,455.30
2023-01-25T03:47:57.709Z,576.08
2023-01-25T03:53:00.356Z,649.97
2023-01-25T03:58:03.289Z,704.92
2023-01-25T04:03:04.869Z,768.25
2023-01-25T04:08:06.579Z,819.65
2023-01-25T04:13:09.938Z,628.03
2023-01-25T04:18:11.529Z,747.95
2023-01-25T04:23:13.105Z,665.63
2023-01-25T04:28:15.974Z,977.63
2023-01-25T04:33:17.590Z,842.35
2023-01-25T04:38:19.544Z,948.13
2023-01-25T04:43:22.400Z,746.00
2023-01-25T04:48:23.880Z,824.15
2023-01-25T04:53:25.439Z,678.45
2023-01-25T04:58:28.371Z,557.05
2023-01-25T05:03:29.958Z,623.55
2023-01-25T05:08:31.480Z,972.08
2023-01-25T05:13:34.394Z,874.08
2023-01-25T05:18:47.518Z,590.83
2023-01-25T05:23:50.099Z,733.55
2023-01-25T05:28:53.036Z,701.97
2023-01-25T05:33:54.593Z,533.28
2023-01-25T05:38:56.118Z,211.02
2023-01-25T05:43:58.986Z,304.63
2023-01-25T05:49:00.494Z,143.20
2023-01-25T05:54:02.487Z,586.70
2023-01-25T05:59:05.810Z,199.02
2023-01-25T06:04:07.418Z,200.15
2023-01-25T06:09:12.655Z,120.00
2023-01-25T06:14:15.591Z,135.75
2023-01-25T06:19:17.132Z,85.32
2023-01-25T06:24:18.831Z,161.38
2023-01-25T06:29:21.716Z,116.75
2023-01-25T06:34:23.255Z,149.75
2023-01-25T06:39:24.821Z,147.10
2023-01-25T06:44:27.656Z,173.60
2023-01-25T06:49:29.173Z,393.38
2023-01-25T06:54:30.741Z,514.35
2023-01-25T06:59:55.591Z,353.25
2023-01-25T07:04:57.094Z,363.40
2023-01-25T07:09:58.585Z,244.20
2023-01-25T07:15:01.755Z,409.83
2023-01-25T07:20:03.480Z,723.80
2023-01-25T07:25:05.834Z,467.63
2023-01-25T07:30:10.355Z,398.10
2023-01-25T07:35:12.006Z,617.55
2023-01-25T07:40:13.730Z,651.00
2023-01-25T07:45:16.611Z,824.13
2023-01-25T07:50:18.366Z,745.88
2023-01-25T07:55:20.300Z,724.88
2023-01-25T08:00:24.853Z,894.25
2023-01-25T08:05:26.627Z,808.65
2023-01-25T08:10:28.363Z,768.28
2023-01-25T08:15:31.182Z,762.38
2023-01-25T08:20:32.791Z,760.08
2023-01-25T08:25:34.268Z,779.50
2023-01-25T08:30:41.209Z,591.60
2023-01-25T08:35:54.597Z,827.33
2023-01-25T08:40:56.173Z,820.67
2023-01-25T08:45:59.101Z,712.92
2023-01-25T08:51:01.222Z,990.42
2023-01-25T08:56:04.507Z,766.50
2023-01-25T09:01:09.579Z,724.38
2023-01-25T09:06:12.182Z,711.30
2023-01-25T09:11:16.094Z,787.65
2023-01-25T09:16:21.988Z,607.17
2023-01-25T09:21:23.803Z,408.20
2023-01-25T09:26:25.453Z,912.75
2023-01-25T09:31:28.509Z,535.20
2023-01-25T09:36:30.115Z,714.65
2023-01-25T09:41:58.419Z,666.13
2023-01-25T09:47:13.635Z,323.80
2023-01-25T09:52:38.233Z,304.55
2023-01-25T09:57:42.050Z,798.67
2023-01-25T10:02:52.537Z,859.38
2023-01-25T10:07:59.410Z,335.55
2023-01-25T10:13:01.964Z,246.83
2023-01-25T10:18:16.012Z,262.95
2023-01-25T10:23:45.965Z,352.67
2023-01-25T10:28:53.706Z,478.23
2023-01-25T10:33:58.208Z,185.30
2023-01-25T10:38:59.871Z,368.58
2023-01-25T10:44:01.498Z,333.92
2023-01-25T10:49:20.467Z,335.80
2023-01-25T10:54:23.096Z,254.13
2023-01-25T10:59:26.998Z,266.13
2023-01-25T11:04:34.316Z,482.80
2023-01-25T11:09:38.123Z,388.00
2023-01-25T11:14:39.735Z,200.45
2023-01-25T11:19:42.732Z,667.40
2023-01-25T11:24:44.438Z,327.55
2023-01-25T11:30:06.132Z,385.33
2023-01-25T11:35:14.804Z,833.47
2023-01-25T11:40:22.374Z,548.03
2023-01-25T11:50:50.876Z,788.60
2023-01-25T11:55:58.710Z,808.53
2023-01-25T12:01:10.635Z,532.78
2023-01-25T12:06:20.682Z,276.02
2023-01-25T12:11:38.531Z,437.90
2023-01-25T12:16:57.430Z,346.90
2023-01-25T12:22:34.861Z,400.35
2023-01-25T12:27:51.409Z,213.75
2023-01-25T12:33:09.043Z,265.35
2023-01-25T12:38:24.811Z,223.27
2023-01-25T12:43:32.779Z,585.92
2023-01-25T12:48:40.292Z,775.15
2023-01-25T12:58:52.427Z,560.85
2023-01-25T13:04:09.223Z,460.67
2023-01-25T13:09:18.861Z,360.52
2023-01-25T13:14:29.643Z,571.92
2023-01-25T13:19:41.348Z,992.13
2023-01-25T13:25:19.910Z,117.95
2023-01-25T13:30:32.737Z,511.65
2023-01-25T13:35:43.308Z,229.38
2023-01-25T13:41:02.568Z,365.27
2023-01-25T13:46:06.217Z,309.00
2023-01-25T13:51:11.962Z,439.13
2023-01-25T13:56:27.851Z,502.02
2023-01-25T14:01:32.062Z,337.30
2023-01-25T14:06:37.033Z,254.35
2023-01-25T14:11:46.480Z,570.03
2023-01-25T14:17:01.473Z,515.22
2023-01-25T14:22:23.234Z,927.40
2023-01-25T14:27:26.172Z,723.05
2023-01-25T14:32:28.015Z,361.45
2023-01-25T14:37:29.573Z,632.42
2023-01-25T14:42:32.837Z,706.67
2023-01-25T14:47:35.497Z,591.00
2023-01-25T14:52:40.365Z,914.72
2023-01-25T14:57:43.362Z,836.55
2023-01-25T15:02:48.451Z,806.92
2023-01-25T15:07:51.975Z,787.42
2023-01-25T15:13:11.896Z,821.20
2023-01-25T15:18:47.236Z,836.35
2023-01-25T15:23:49.606Z,879.17
2023-01-25T15:28:54.469Z,710.03
2023-01-25T15:33:57.171Z,603.30
2023-01-25T15:38:58.777Z,698.58
2023-01-25T15:44:01.699Z,1048.93
2023-01-25T15:49:04.941Z,1007.90
2023-01-25T15:54:06.531Z,549.03
2023-01-25T15:59:17.226Z,507.58
2023-01-25T16:04:18.793Z,745.75
2023-01-25T16:09:22.699Z,664.03
2023-01-25T16:14:26.885Z,560.53
2023-01-25T16:19:28.641Z,665.72
2023-01-25T16:24:30.213Z,686.25
2023-01-25T16:29:33.108Z,761.47
2023-01-25T16:34:34.706Z,635.30
2023-01-25T16:39:36.327Z,803.70
2023-01-25T16:44:39.502Z,816.83
2023-01-25T16:49:41.159Z,797.47
2023-01-25T16:54:42.821Z,770.40
2023-01-25T16:59:45.907Z,604.55
2023-01-25T17:04:47.467Z,469.10
2023-01-25T17:09:49.051Z,552.83
2023-01-25T17:14:53.268Z,465.35
2023-01-25T17:19:54.804Z,502.08
2023-01-25T17:24:56.377Z,539.22
2023-01-25T17:29:59.525Z,495.90
2023-01-25T17:35:01.080Z,627.85
2023-01-25T17:40:02.761Z,495.90
2023-01-25T17:45:07.312Z,441.48
2023-01-25T17:50:10.282Z,463.27
2023-01-25T17:55:12.080Z,376.20
2023-01-25T18:00:30.227Z,466.38
2023-01-25T18:05:31.742Z,642.63
2023-01-25T18:10:33.736Z,401.60
2023-01-25T18:15:37.645Z,504.02
2023-01-25T18:20:39.279Z,534.78
2023-01-25T18:25:40.862Z,660.10
2023-01-25T18:30:50.913Z,621.58
2023-01-25T18:35:52.566Z,583.42
2023-01-25T18:40:54.671Z,461.83
2023-01-25T18:45:58.583Z,347.05
2023-01-25T18:51:05.591Z,153.02
2023-01-25T18:56:10.195Z,148.45
2023-01-25T19:01:15.106Z,152.00
2023-01-25T19:06:17.993Z,299.02
2023-01-25T19:11:21.749Z,377.33
2023-01-25T19:16:24.959Z,251.05
2023-01-25T19:21:27.366Z,340.02
2023-01-25T19:26:29.439Z,252.07
2023-01-25T19:31:32.835Z,195.40
2023-01-25T19:36:36.025Z,475.08
2023-01-25T19:41:38.019Z,282.90
2023-01-25T19:46:41.161Z,671.78
2023-01-25T19:51:44.203Z,729.72
2023-01-25T19:56:47.925Z,739.72
2023-01-25T20:01:51.351Z,481.65
2023-01-25T20:06:53.064Z,556.53
2023-01-25T20:11:55.854Z,432.42
2023-01-25T20:16:58.772Z,401.83
2023-01-25T20:22:00.598Z,370.27
2023-01-25T20:27:04.254Z,653.67
2023-01-25T20:32:07.834Z,597.85
2023-01-25T20:37:09.476Z,573.42
2023-01-25T20:42:11.060Z,657.08
2023-01-25T20:47:14.058Z,442.45
2023-01-25T20:52:15.701Z,198.32
2023-01-25T20:57:18.836Z,207.52
2023-01-25T21:02:21.794Z,587.38
2023-01-25T21:07:23.516Z,477.40
2023-01-25T21:12:25.198Z,690.72
2023-01-25T21:17:28.112Z,805.72
2023-01-25T21:22:29.966Z,682.22
2023-01-25T21:27:31.613Z,339.35
2023-01-25T21:32:34.549Z,622.15
2023-01-25T21:37:36.124Z,339.45
2023-01-25T21:42:37.702Z,426.73
2023-01-25T21:47:40.587Z,239.07
2023-01-25T21:52:42.204Z,194.45
2023-01-25T21:57:43.803Z,296.67
2023-01-25T22:02:46.929Z,189.40
2023-01-25T22:07:48.548Z,140.43
2023-01-25T22:12:50.088Z,276.63
2023-01-25T22:17:53.071Z,179.48
2023-01-25T22:22:54.662Z,157.40
2023-01-25T22:27:59.771Z,139.90
2023-01-25T22:33:02.700Z,214.05
2023-01-25T22:38:04.311Z,205.73
2023-01-25T22:43:05.907Z,164.70
2023-01-25T22:48:08.867Z,152.95
2023-01-25T22:53:10.793Z,212.50
2023-01-25T22:58:12.353Z,319.90
2023-01-25T23:03:15.261Z,255.18
2023-01-25T23:08:16.861Z,296.35
2023-01-25T23:13:18.496Z,347.33
2023-01-25T23:18:21.645Z,176.30
2023-01-25T23:23:23.295Z,370.85
2023-01-25T23:28:24.968Z,497.48
2023-01-25T23:33:29.362Z,235.23
2023-01-25T23:38:30.961Z,380.23
2023-01-25T23:43:32.703Z,113.20
2023-01-25T23:48:35.705Z,211.63
2023-01-25T23:53:38.209Z,406.05
2023-01-25T23:58:40.243Z,283.70
